sensor_id;sensor_type;location;lat;lon;timestamp;P1;durP1;ratioP1;P2;durP2;ratioP2
51266;SDS011;37338;47.426;19.204;2023-04-06T00:53:02;4.60;;;3.30;;
51266;SDS011;37338;47.426;19.204;2023-04-06T00:55:28;11.60;;;4.80;;
51266;SDS011;37338;47.426;19.204;2023-04-06T00:57:54;9.63;;;3.73;;
51266;SDS011;37338;47.426;19.204;2023-04-06T04:02:02;20.30;;;7.90;;
51266;SDS011;37338;47.426;19.204;2023-04-06T04:44:50;11.77;;;5.83;;
51266;SDS011;37338;47.426;19.204;2023-04-06T04:47:18;11.00;;;6.20;;
51266;SDS011;37338;47.426;19.204;2023-04-06T04:49:44;14.03;;;5.93;;
51266;SDS011;37338;47.426;19.204;2023-04-06T04:58:41;13.97;;;6.17;;
51266;SDS011;37338;47.426;19.204;2023-04-06T05:01:06;16.37;;;7.50;;
51266;SDS011;37338;47.426;19.204;2023-04-06T05:03:32;11.23;;;5.67;;
51266;SDS011;37338;47.426;19.204;2023-04-06T05:05:57;11.20;;;5.43;;
51266;SDS011;37338;47.426;19.204;2023-04-06T05:08:23;13.53;;;5.20;;
51266;SDS011;37338;47.426;19.204;2023-04-06T05:10:48;13.37;;;6.30;;
51266;SDS011;37338;47.426;19.204;2023-04-06T05:13:14;13.93;;;5.67;;
51266;SDS011;37338;47.426;19.204;2023-04-06T05:15:40;13.23;;;5.20;;
51266;SDS011;37338;47.426;19.204;2023-04-06T05:18:06;10.17;;;4.70;;
51266;SDS011;37338;47.426;19.204;2023-04-06T05:20:34;11.17;;;5.27;;
51266;SDS011;37338;47.426;19.204;2023-04-06T05:23:00;13.40;;;4.93;;
51266;SDS011;37338;47.426;19.204;2023-04-06T05:25:26;11.60;;;5.43;;
51266;SDS011;37338;47.426;19.204;2023-04-06T05:27:52;9.00;;;5.40;;
51266;SDS011;37338;47.426;19.204;2023-04-06T05:30:17;10.73;;;4.57;;
51266;SDS011;37338;47.426;19.204;2023-04-06T05:32:43;13.23;;;5.60;;
51266;SDS011;37338;47.426;19.204;2023-04-06T05:35:09;9.60;;;5.57;;
51266;SDS011;37338;47.426;19.204;2023-04-06T05:37:35;13.93;;;5.00;;
51266;SDS011;37338;47.426;19.204;2023-04-06T05:40:00;12.53;;;5.67;;
51266;SDS011;37338;47.426;19.204;2023-04-06T05:42:26;12.87;;;5.60;;
51266;SDS011;37338;47.426;19.204;2023-04-06T05:44:52;17.50;;;6.00;;
51266;SDS011;37338;47.426;19.204;2023-04-06T05:47:17;13.00;;;6.50;;
51266;SDS011;37338;47.426;19.204;2023-04-06T05:49:43;14.53;;;5.90;;
51266;SDS011;37338;47.426;19.204;2023-04-06T05:52:08;13.57;;;6.87;;
51266;SDS011;37338;47.426;19.204;2023-04-06T05:54:35;17.00;;;6.60;;
51266;SDS011;37338;47.426;19.204;2023-04-06T05:57:01;15.63;;;6.83;;
51266;SDS011;37338;47.426;19.204;2023-04-06T05:59:27;12.73;;;6.83;;
51266;SDS011;37338;47.426;19.204;2023-04-06T06:01:53;12.33;;;5.40;;
51266;SDS011;37338;47.426;19.204;2023-04-06T06:04:18;11.87;;;6.70;;
51266;SDS011;37338;47.426;19.204;2023-04-06T06:06:44;17.30;;;5.77;;
51266;SDS011;37338;47.426;19.204;2023-04-06T06:09:09;13.30;;;6.07;;
51266;SDS011;37338;47.426;19.204;2023-04-06T06:11:35;13.57;;;6.10;;
51266;SDS011;37338;47.426;19.204;2023-04-06T06:14:00;11.33;;;6.47;;
51266;SDS011;37338;47.426;19.204;2023-04-06T06:16:26;11.27;;;6.20;;
51266;SDS011;37338;47.426;19.204;2023-04-06T06:18:51;11.40;;;5.97;;
51266;SDS011;37338;47.426;19.204;2023-04-06T06:21:16;11.20;;;5.83;;
51266;SDS011;37338;47.426;19.204;2023-04-06T06:23:42;14.67;;;6.73;;
51266;SDS011;37338;47.426;19.204;2023-04-06T06:26:07;13.17;;;6.17;;
51266;SDS011;37338;47.426;19.204;2023-04-06T06:28:33;10.13;;;5.73;;
51266;SDS011;37338;47.426;19.204;2023-04-06T06:30:58;9.40;;;5.33;;
51266;SDS011;37338;47.426;19.204;2023-04-06T06:33:24;13.97;;;7.43;;
51266;SDS011;37338;47.426;19.204;2023-04-06T06:35:51;10.80;;;5.87;;
51266;SDS011;37338;47.426;19.204;2023-04-06T06:38:16;11.27;;;4.90;;
51266;SDS011;37338;47.426;19.204;2023-04-06T06:40:42;10.10;;;5.67;;
51266;SDS011;37338;47.426;19.204;2023-04-06T06:43:07;16.97;;;6.57;;
51266;SDS011;37338;47.426;19.204;2023-04-06T06:45:33;9.57;;;5.43;;
51266;SDS011;37338;47.426;19.204;2023-04-06T06:47:58;12.23;;;7.20;;
51266;SDS011;37338;47.426;19.204;2023-04-06T06:50:24;13.27;;;6.43;;
51266;SDS011;37338;47.426;19.204;2023-04-06T06:52:49;10.93;;;5.93;;
51266;SDS011;37338;47.426;19.204;2023-04-06T06:55:15;20.03;;;5.77;;
51266;SDS011;37338;47.426;19.204;2023-04-06T06:57:40;16.00;;;6.77;;
51266;SDS011;37338;47.426;19.204;2023-04-06T07:00:07;15.63;;;6.73;;
51266;SDS011;37338;47.426;19.204;2023-04-06T07:02:34;18.60;;;8.07;;
51266;SDS011;37338;47.426;19.204;2023-04-06T07:05:00;23.40;;;11.07;;
51266;SDS011;37338;47.426;19.204;2023-04-06T07:07:26;20.07;;;8.90;;
51266;SDS011;37338;47.426;19.204;2023-04-06T07:09:51;16.87;;;8.30;;
51266;SDS011;37338;47.426;19.204;2023-04-06T07:12:17;10.10;;;4.53;;
51266;SDS011;37338;47.426;19.204;2023-04-06T07:14:42;10.30;;;5.10;;
51266;SDS011;37338;47.426;19.204;2023-04-06T07:17:08;11.07;;;4.27;;
51266;SDS011;37338;47.426;19.204;2023-04-06T07:19:34;9.50;;;5.30;;
51266;SDS011;37338;47.426;19.204;2023-04-06T07:22:00;8.27;;;4.83;;
51266;SDS011;37338;47.426;19.204;2023-04-06T07:24:26;11.53;;;5.07;;
51266;SDS011;37338;47.426;19.204;2023-04-06T07:26:51;12.07;;;5.17;;
51266;SDS011;37338;47.426;19.204;2023-04-06T07:29:16;10.20;;;4.63;;
51266;SDS011;37338;47.426;19.204;2023-04-06T07:31:43;7.33;;;4.00;;
51266;SDS011;37338;47.426;19.204;2023-04-06T07:34:08;10.33;;;4.77;;
51266;SDS011;37338;47.426;19.204;2023-04-06T07:36:34;10.30;;;5.70;;
51266;SDS011;37338;47.426;19.204;2023-04-06T07:38:59;7.93;;;4.30;;
51266;SDS011;37338;47.426;19.204;2023-04-06T07:41:24;7.37;;;4.47;;
51266;SDS011;37338;47.426;19.204;2023-04-06T07:43:50;8.60;;;4.30;;
51266;SDS011;37338;47.426;19.204;2023-04-06T07:46:15;11.40;;;4.37;;
51266;SDS011;37338;47.426;19.204;2023-04-06T07:48:41;9.13;;;3.53;;
51266;SDS011;37338;47.426;19.204;2023-04-06T07:51:06;7.33;;;4.30;;
51266;SDS011;37338;47.426;19.204;2023-04-06T07:53:32;6.33;;;3.73;;
51266;SDS011;37338;47.426;19.204;2023-04-06T07:55:58;9.13;;;4.57;;
51266;SDS011;37338;47.426;19.204;2023-04-06T07:58:24;12.47;;;3.77;;
51266;SDS011;37338;47.426;19.204;2023-04-06T08:00:49;7.57;;;3.70;;
51266;SDS011;37338;47.426;19.204;2023-04-06T08:03:14;6.37;;;3.03;;
51266;SDS011;37338;47.426;19.204;2023-04-06T08:05:41;10.73;;;4.03;;
51266;SDS011;37338;47.426;19.204;2023-04-06T08:08:07;8.63;;;3.20;;
51266;SDS011;37338;47.426;19.204;2023-04-06T08:10:33;9.10;;;4.20;;
51266;SDS011;37338;47.426;19.204;2023-04-06T08:12:59;6.60;;;3.53;;
51266;SDS011;37338;47.426;19.204;2023-04-06T08:15:25;6.50;;;3.13;;
51266;SDS011;37338;47.426;19.204;2023-04-06T08:17:50;6.93;;;3.77;;
51266;SDS011;37338;47.426;19.204;2023-04-06T08:20:15;8.37;;;4.47;;
51266;SDS011;37338;47.426;19.204;2023-04-06T08:22:41;7.77;;;4.07;;
51266;SDS011;37338;47.426;19.204;2023-04-06T08:25:06;9.00;;;3.37;;
51266;SDS011;37338;47.426;19.204;2023-04-06T08:27:32;6.40;;;3.90;;
51266;SDS011;37338;47.426;19.204;2023-04-06T08:29:57;6.53;;;3.37;;
51266;SDS011;37338;47.426;19.204;2023-04-06T08:32:23;5.73;;;3.73;;
51266;SDS011;37338;47.426;19.204;2023-04-06T08:34:48;9.90;;;4.40;;
51266;SDS011;37338;47.426;19.204;2023-04-06T08:37:14;8.17;;;3.43;;
51266;SDS011;37338;47.426;19.204;2023-04-06T08:39:40;8.30;;;4.47;;
51266;SDS011;37338;47.426;19.204;2023-04-06T08:42:10;8.50;;;4.23;;
51266;SDS011;37338;47.426;19.204;2023-04-06T08:44:36;6.97;;;3.50;;
51266;SDS011;37338;47.426;19.204;2023-04-06T08:47:02;11.87;;;3.77;;
51266;SDS011;37338;47.426;19.204;2023-04-06T08:49:29;10.13;;;4.60;;
51266;SDS011;37338;47.426;19.204;2023-04-06T08:51:55;9.13;;;3.57;;
51266;SDS011;37338;47.426;19.204;2023-04-06T08:54:22;6.67;;;3.60;;
51266;SDS011;37338;47.426;19.204;2023-04-06T08:56:47;7.13;;;3.90;;
51266;SDS011;37338;47.426;19.204;2023-04-06T08:59:13;6.70;;;4.10;;
51266;SDS011;37338;47.426;19.204;2023-04-06T09:01:40;7.90;;;5.40;;
51266;SDS011;37338;47.426;19.204;2023-04-06T09:04:08;6.10;;;3.80;;
51266;SDS011;37338;47.426;19.204;2023-04-06T09:06:35;8.93;;;3.90;;
51266;SDS011;37338;47.426;19.204;2023-04-06T09:09:02;7.37;;;3.90;;
51266;SDS011;37338;47.426;19.204;2023-04-06T09:11:27;8.40;;;4.30;;
51266;SDS011;37338;47.426;19.204;2023-04-06T09:13:55;6.40;;;4.10;;
51266;SDS011;37338;47.426;19.204;2023-04-06T09:16:22;8.57;;;4.53;;
51266;SDS011;37338;47.426;19.204;2023-04-06T09:18:48;9.70;;;4.70;;
51266;SDS011;37338;47.426;19.204;2023-04-06T09:21:16;6.83;;;3.97;;
51266;SDS011;37338;47.426;19.204;2023-04-06T09:23:43;5.27;;;4.07;;
51266;SDS011;37338;47.426;19.204;2023-04-06T09:26:15;10.33;;;3.93;;
51266;SDS011;37338;47.426;19.204;2023-04-06T09:31:24;10.40;;;4.50;;
51266;SDS011;37338;47.426;19.204;2023-04-06T09:33:53;8.37;;;4.17;;
51266;SDS011;37338;47.426;19.204;2023-04-06T09:36:18;7.10;;;3.90;;
51266;SDS011;37338;47.426;19.204;2023-04-06T09:38:54;6.03;;;3.27;;
51266;SDS011;37338;47.426;19.204;2023-04-06T09:41:30;5.30;;;3.33;;
51266;SDS011;37338;47.426;19.204;2023-04-06T09:44:03;4.63;;;2.93;;
51266;SDS011;37338;47.426;19.204;2023-04-06T09:46:30;7.23;;;3.43;;
51266;SDS011;37338;47.426;19.204;2023-04-06T09:48:57;8.67;;;3.80;;
51266;SDS011;37338;47.426;19.204;2023-04-06T09:51:22;5.30;;;3.43;;
51266;SDS011;37338;47.426;19.204;2023-04-06T09:53:52;11.10;;;3.33;;
51266;SDS011;37338;47.426;19.204;2023-04-06T09:56:20;6.43;;;3.30;;
51266;SDS011;37338;47.426;19.204;2023-04-06T09:58:50;9.57;;;3.53;;
51266;SDS011;37338;47.426;19.204;2023-04-06T10:01:20;8.33;;;3.40;;
51266;SDS011;37338;47.426;19.204;2023-04-06T10:06:20;6.67;;;3.23;;
51266;SDS011;37338;47.426;19.204;2023-04-06T10:08:47;10.33;;;3.83;;
51266;SDS011;37338;47.426;19.204;2023-04-06T10:11:15;7.70;;;3.53;;
51266;SDS011;37338;47.426;19.204;2023-04-06T10:13:41;6.67;;;3.47;;
51266;SDS011;37338;47.426;19.204;2023-04-06T10:16:07;6.03;;;3.37;;
51266;SDS011;37338;47.426;19.204;2023-04-06T10:18:33;7.97;;;4.43;;
51266;SDS011;37338;47.426;19.204;2023-04-06T10:21:19;8.97;;;3.50;;
51266;SDS011;37338;47.426;19.204;2023-04-06T10:23:51;5.33;;;3.03;;
51266;SDS011;37338;47.426;19.204;2023-04-06T10:26:19;7.60;;;3.80;;
51266;SDS011;37338;47.426;19.204;2023-04-06T10:28:46;8.77;;;3.53;;
51266;SDS011;37338;47.426;19.204;2023-04-06T10:31:13;6.67;;;4.10;;
51266;SDS011;37338;47.426;19.204;2023-04-06T10:33:38;8.53;;;3.67;;
51266;SDS011;37338;47.426;19.204;2023-04-06T10:36:15;6.30;;;3.03;;
51266;SDS011;37338;47.426;19.204;2023-04-06T10:38:47;7.30;;;4.23;;
51266;SDS011;37338;47.426;19.204;2023-04-06T10:41:12;4.53;;;3.10;;
51266;SDS011;37338;47.426;19.204;2023-04-06T10:43:39;5.97;;;3.50;;
51266;SDS011;37338;47.426;19.204;2023-04-06T10:46:06;6.87;;;3.40;;
51266;SDS011;37338;47.426;19.204;2023-04-06T10:48:42;7.30;;;3.73;;
51266;SDS011;37338;47.426;19.204;2023-04-06T10:51:15;6.23;;;3.73;;
51266;SDS011;37338;47.426;19.204;2023-04-06T10:53:42;5.47;;;3.42;;
51266;SDS011;37338;47.426;19.204;2023-04-06T10:56:12;8.17;;;3.37;;
51266;SDS011;37338;47.426;19.204;2023-04-06T10:58:43;7.57;;;3.67;;
51266;SDS011;37338;47.426;19.204;2023-04-06T11:01:10;7.40;;;3.83;;
51266;SDS011;37338;47.426;19.204;2023-04-06T11:03:43;6.50;;;3.90;;
51266;SDS011;37338;47.426;19.204;2023-04-06T11:06:21;11.07;;;5.57;;
51266;SDS011;37338;47.426;19.204;2023-04-06T11:08:47;6.03;;;3.60;;
51266;SDS011;37338;47.426;19.204;2023-04-06T11:11:14;5.17;;;3.80;;
51266;SDS011;37338;47.426;19.204;2023-04-06T11:13:45;10.27;;;3.70;;
51266;SDS011;37338;47.426;19.204;2023-04-06T11:19:02;6.80;;;3.43;;
51266;SDS011;37338;47.426;19.204;2023-04-06T11:21:35;5.47;;;2.90;;
51266;SDS011;37338;47.426;19.204;2023-04-06T11:26:46;5.90;;;3.40;;
51266;SDS011;37338;47.426;19.204;2023-04-06T11:29:14;7.17;;;3.60;;
51266;SDS011;37338;47.426;19.204;2023-04-06T11:32:02;5.07;;;3.23;;
51266;SDS011;37338;47.426;19.204;2023-04-06T11:34:28;7.97;;;3.43;;
51266;SDS011;37338;47.426;19.204;2023-04-06T11:36:58;10.27;;;3.77;;
51266;SDS011;37338;47.426;19.204;2023-04-06T11:39:26;7.37;;;3.57;;
51266;SDS011;37338;47.426;19.204;2023-04-06T11:42:01;7.53;;;3.63;;
51266;SDS011;37338;47.426;19.204;2023-04-06T11:44:37;6.93;;;3.93;;
51266;SDS011;37338;47.426;19.204;2023-04-06T11:47:05;4.43;;;2.83;;
51266;SDS011;37338;47.426;19.204;2023-04-06T11:49:32;7.33;;;3.73;;
51266;SDS011;37338;47.426;19.204;2023-04-06T11:51:59;6.03;;;3.40;;
51266;SDS011;37338;47.426;19.204;2023-04-06T11:56:57;4.77;;;2.43;;
51266;SDS011;37338;47.426;19.204;2023-04-06T11:59:22;4.93;;;2.90;;
51266;SDS011;37338;47.426;19.204;2023-04-06T12:01:48;12.30;;;3.47;;
51266;SDS011;37338;47.426;19.204;2023-04-06T12:04:13;8.23;;;3.53;;
51266;SDS011;37338;47.426;19.204;2023-04-06T12:06:39;7.87;;;3.53;;
51266;SDS011;37338;47.426;19.204;2023-04-06T12:09:05;7.33;;;3.40;;
51266;SDS011;37338;47.426;19.204;2023-04-06T12:11:30;6.93;;;3.10;;
51266;SDS011;37338;47.426;19.204;2023-04-06T12:13:55;7.23;;;3.10;;
51266;SDS011;37338;47.426;19.204;2023-04-06T12:16:21;5.10;;;2.80;;
51266;SDS011;37338;47.426;19.204;2023-04-06T12:18:47;6.33;;;3.37;;
51266;SDS011;37338;47.426;19.204;2023-04-06T12:21:12;5.00;;;3.57;;
51266;SDS011;37338;47.426;19.204;2023-04-06T12:23:37;5.73;;;3.17;;
51266;SDS011;37338;47.426;19.204;2023-04-06T12:26:03;5.33;;;2.77;;
51266;SDS011;37338;47.426;19.204;2023-04-06T12:28:28;5.37;;;3.20;;
51266;SDS011;37338;47.426;19.204;2023-04-06T12:30:54;5.70;;;3.10;;
51266;SDS011;37338;47.426;19.204;2023-04-06T12:33:20;6.73;;;3.03;;
51266;SDS011;37338;47.426;19.204;2023-04-06T12:35:46;4.87;;;2.93;;
51266;SDS011;37338;47.426;19.204;2023-04-06T12:38:11;6.93;;;3.20;;
51266;SDS011;37338;47.426;19.204;2023-04-06T12:40:37;4.87;;;2.67;;
51266;SDS011;37338;47.426;19.204;2023-04-06T12:43:03;9.87;;;3.07;;
51266;SDS011;37338;47.426;19.204;2023-04-06T12:45:32;6.57;;;2.83;;
51266;SDS011;37338;47.426;19.204;2023-04-06T12:47:58;7.03;;;2.43;;
51266;SDS011;37338;47.426;19.204;2023-04-06T12:50:23;4.20;;;2.73;;
51266;SDS011;37338;47.426;19.204;2023-04-06T12:52:49;6.63;;;2.97;;
51266;SDS011;37338;47.426;19.204;2023-04-06T12:55:14;6.57;;;3.03;;
51266;SDS011;37338;47.426;19.204;2023-04-06T12:57:40;5.23;;;3.63;;
51266;SDS011;37338;47.426;19.204;2023-04-06T13:00:05;8.87;;;2.43;;
51266;SDS011;37338;47.426;19.204;2023-04-06T13:02:32;4.17;;;2.63;;
51266;SDS011;37338;47.426;19.204;2023-04-06T13:04:57;5.23;;;2.63;;
51266;SDS011;37338;47.426;19.204;2023-04-06T13:07:23;6.07;;;3.07;;
51266;SDS011;37338;47.426;19.204;2023-04-06T13:09:48;5.20;;;3.20;;
51266;SDS011;37338;47.426;19.204;2023-04-06T13:12:15;4.47;;;2.70;;
51266;SDS011;37338;47.426;19.204;2023-04-06T13:14:40;8.43;;;3.30;;
51266;SDS011;37338;47.426;19.204;2023-04-06T13:17:06;8.73;;;3.60;;
51266;SDS011;37338;47.426;19.204;2023-04-06T13:19:32;5.60;;;3.13;;
51266;SDS011;37338;47.426;19.204;2023-04-06T13:21:57;5.37;;;2.67;;
51266;SDS011;37338;47.426;19.204;2023-04-06T13:24:23;6.87;;;3.97;;
51266;SDS011;37338;47.426;19.204;2023-04-06T13:26:49;6.60;;;3.40;;
51266;SDS011;37338;47.426;19.204;2023-04-06T13:29:14;6.33;;;3.43;;
51266;SDS011;37338;47.426;19.204;2023-04-06T13:31:40;7.13;;;3.73;;
51266;SDS011;37338;47.426;19.204;2023-04-06T13:34:05;5.23;;;3.07;;
51266;SDS011;37338;47.426;19.204;2023-04-06T13:36:31;8.27;;;3.27;;
51266;SDS011;37338;47.426;19.204;2023-04-06T13:38:57;6.00;;;3.10;;
51266;SDS011;37338;47.426;19.204;2023-04-06T13:41:23;5.57;;;3.10;;
51266;SDS011;37338;47.426;19.204;2023-04-06T13:43:50;6.63;;;3.20;;
51266;SDS011;37338;47.426;19.204;2023-04-06T13:46:16;6.27;;;3.63;;
51266;SDS011;37338;47.426;19.204;2023-04-06T13:48:41;3.37;;;2.60;;
51266;SDS011;37338;47.426;19.204;2023-04-06T13:51:08;7.17;;;2.77;;
51266;SDS011;37338;47.426;19.204;2023-04-06T13:53:34;5.73;;;3.00;;
51266;SDS011;37338;47.426;19.204;2023-04-06T13:56:00;5.00;;;3.07;;
51266;SDS011;37338;47.426;19.204;2023-04-06T13:58:25;4.80;;;3.03;;
51266;SDS011;37338;47.426;19.204;2023-04-06T14:00:51;12.83;;;5.10;;
51266;SDS011;37338;47.426;19.204;2023-04-06T14:03:17;4.80;;;2.73;;
51266;SDS011;37338;47.426;19.204;2023-04-06T14:05:44;6.23;;;2.87;;
51266;SDS011;37338;47.426;19.204;2023-04-06T14:08:09;6.80;;;2.97;;
51266;SDS011;37338;47.426;19.204;2023-04-06T14:10:38;8.27;;;3.23;;
51266;SDS011;37338;47.426;19.204;2023-04-06T14:13:05;12.33;;;4.10;;
51266;SDS011;37338;47.426;19.204;2023-04-06T14:15:31;13.87;;;6.77;;
51266;SDS011;37338;47.426;19.204;2023-04-06T14:17:56;14.60;;;6.43;;
51266;SDS011;37338;47.426;19.204;2023-04-06T14:20:22;7.47;;;3.50;;
51266;SDS011;37338;47.426;19.204;2023-04-06T14:22:47;6.53;;;3.13;;
51266;SDS011;37338;47.426;19.204;2023-04-06T14:25:14;7.87;;;3.33;;
51266;SDS011;37338;47.426;19.204;2023-04-06T14:27:41;6.43;;;2.77;;
51266;SDS011;37338;47.426;19.204;2023-04-06T14:30:07;8.03;;;3.40;;
51266;SDS011;37338;47.426;19.204;2023-04-06T14:32:33;6.17;;;2.57;;
51266;SDS011;37338;47.426;19.204;2023-04-06T14:34:58;7.23;;;2.67;;
51266;SDS011;37338;47.426;19.204;2023-04-06T14:37:24;5.27;;;2.77;;
51266;SDS011;37338;47.426;19.204;2023-04-06T14:39:50;8.60;;;2.77;;
51266;SDS011;37338;47.426;19.204;2023-04-06T14:42:15;8.10;;;3.07;;
51266;SDS011;37338;47.426;19.204;2023-04-06T14:44:40;4.47;;;2.43;;
51266;SDS011;37338;47.426;19.204;2023-04-06T14:47:07;5.83;;;2.47;;
51266;SDS011;37338;47.426;19.204;2023-04-06T14:49:34;5.27;;;2.87;;
51266;SDS011;37338;47.426;19.204;2023-04-06T14:51:59;5.20;;;3.50;;
51266;SDS011;37338;47.426;19.204;2023-04-06T14:54:25;4.87;;;3.23;;
51266;SDS011;37338;47.426;19.204;2023-04-06T14:56:50;3.90;;;2.37;;
51266;SDS011;37338;47.426;19.204;2023-04-06T14:59:15;5.43;;;3.03;;
51266;SDS011;37338;47.426;19.204;2023-04-06T15:01:42;5.83;;;2.97;;
51266;SDS011;37338;47.426;19.204;2023-04-06T15:04:08;6.10;;;2.83;;
51266;SDS011;37338;47.426;19.204;2023-04-06T15:06:33;21.63;;;10.87;;
51266;SDS011;37338;47.426;19.204;2023-04-06T15:08:58;29.43;;;12.60;;
51266;SDS011;37338;47.426;19.204;2023-04-06T15:11:24;53.37;;;20.90;;
51266;SDS011;37338;47.426;19.204;2023-04-06T15:13:49;20.03;;;9.83;;
51266;SDS011;37338;47.426;19.204;2023-04-06T15:16:15;30.73;;;13.97;;
51266;SDS011;37338;47.426;19.204;2023-04-06T15:18:41;10.67;;;5.60;;
51266;SDS011;37338;47.426;19.204;2023-04-06T15:21:06;7.03;;;4.30;;
51266;SDS011;37338;47.426;19.204;2023-04-06T15:23:32;7.67;;;4.30;;
51266;SDS011;37338;47.426;19.204;2023-04-06T15:25:59;5.77;;;4.57;;
51266;SDS011;37338;47.426;19.204;2023-04-06T15:28:25;7.70;;;3.03;;
51266;SDS011;37338;47.426;19.204;2023-04-06T15:30:51;5.07;;;2.97;;
51266;SDS011;37338;47.426;19.204;2023-04-06T15:33:16;4.90;;;2.83;;
51266;SDS011;37338;47.426;19.204;2023-04-06T15:35:42;8.53;;;3.17;;
51266;SDS011;37338;47.426;19.204;2023-04-06T15:38:10;5.27;;;3.00;;
51266;SDS011;37338;47.426;19.204;2023-04-06T15:40:41;4.67;;;2.30;;
51266;SDS011;37338;47.426;19.204;2023-04-06T15:43:11;6.13;;;2.57;;
51266;SDS011;37338;47.426;19.204;2023-04-06T15:45:37;6.00;;;2.90;;
51266;SDS011;37338;47.426;19.204;2023-04-06T15:48:02;5.67;;;2.60;;
51266;SDS011;37338;47.426;19.204;2023-04-06T15:50:27;5.20;;;3.23;;
51266;SDS011;37338;47.426;19.204;2023-04-06T15:52:53;4.77;;;2.77;;
51266;SDS011;37338;47.426;19.204;2023-04-06T15:55:18;6.00;;;2.60;;
51266;SDS011;37338;47.426;19.204;2023-04-06T15:57:44;5.37;;;2.43;;
51266;SDS011;37338;47.426;19.204;2023-04-06T16:00:09;5.17;;;2.63;;
51266;SDS011;37338;47.426;19.204;2023-04-06T16:02:35;4.73;;;2.77;;
51266;SDS011;37338;47.426;19.204;2023-04-06T16:05:00;5.63;;;3.30;;
51266;SDS011;37338;47.426;19.204;2023-04-06T16:07:27;4.23;;;2.60;;
51266;SDS011;37338;47.426;19.204;2023-04-06T16:09:53;5.87;;;3.03;;
51266;SDS011;37338;47.426;19.204;2023-04-06T16:12:18;11.03;;;3.43;;
51266;SDS011;37338;47.426;19.204;2023-04-06T16:14:44;8.97;;;3.07;;
51266;SDS011;37338;47.426;19.204;2023-04-06T16:17:13;6.37;;;2.80;;
51266;SDS011;37338;47.426;19.204;2023-04-06T16:19:38;7.07;;;3.10;;
51266;SDS011;37338;47.426;19.204;2023-04-06T16:22:04;7.27;;;3.07;;
51266;SDS011;37338;47.426;19.204;2023-04-06T16:24:30;7.03;;;3.57;;
51266;SDS011;37338;47.426;19.204;2023-04-06T16:26:56;5.93;;;3.00;;
51266;SDS011;37338;47.426;19.204;2023-04-06T16:29:22;7.03;;;2.80;;
51266;SDS011;37338;47.426;19.204;2023-04-06T16:31:49;6.67;;;2.77;;
51266;SDS011;37338;47.426;19.204;2023-04-06T16:34:15;7.40;;;4.10;;
51266;SDS011;37338;47.426;19.204;2023-04-06T16:36:40;6.50;;;3.03;;
51266;SDS011;37338;47.426;19.204;2023-04-06T16:39:06;4.33;;;2.70;;
51266;SDS011;37338;47.426;19.204;2023-04-06T16:41:32;6.63;;;3.77;;
51266;SDS011;37338;47.426;19.204;2023-04-06T16:43:58;4.50;;;2.60;;
51266;SDS011;37338;47.426;19.204;2023-04-06T16:46:30;6.87;;;3.77;;
51266;SDS011;37338;47.426;19.204;2023-04-06T16:48:55;8.97;;;3.40;;
51266;SDS011;37338;47.426;19.204;2023-04-06T16:51:21;6.03;;;3.50;;
51266;SDS011;37338;47.426;19.204;2023-04-06T16:53:46;11.47;;;3.53;;
51266;SDS011;37338;47.426;19.204;2023-04-06T16:56:12;6.67;;;3.23;;
51266;SDS011;37338;47.426;19.204;2023-04-06T16:58:37;7.53;;;3.60;;
51266;SDS011;37338;47.426;19.204;2023-04-06T17:01:03;6.20;;;3.63;;
51266;SDS011;37338;47.426;19.204;2023-04-06T17:03:31;7.73;;;2.87;;
51266;SDS011;37338;47.426;19.204;2023-04-06T17:05:57;6.83;;;3.60;;
51266;SDS011;37338;47.426;19.204;2023-04-06T17:08:22;7.07;;;4.23;;
51266;SDS011;37338;47.426;19.204;2023-04-06T17:10:47;9.53;;;4.60;;
51266;SDS011;37338;47.426;19.204;2023-04-06T17:13:13;6.73;;;3.17;;
51266;SDS011;37338;47.426;19.204;2023-04-06T17:15:38;7.23;;;4.23;;
51266;SDS011;37338;47.426;19.204;2023-04-06T17:18:03;6.93;;;4.17;;
51266;SDS011;37338;47.426;19.204;2023-04-06T17:20:29;5.47;;;4.17;;
51266;SDS011;37338;47.426;19.204;2023-04-06T17:22:54;8.17;;;4.83;;
51266;SDS011;37338;47.426;19.204;2023-04-06T17:25:20;9.03;;;4.53;;
51266;SDS011;37338;47.426;19.204;2023-04-06T17:27:46;6.20;;;3.60;;
51266;SDS011;37338;47.426;19.204;2023-04-06T17:30:11;7.63;;;4.33;;
51266;SDS011;37338;47.426;19.204;2023-04-06T17:32:38;9.20;;;4.67;;
51266;SDS011;37338;47.426;19.204;2023-04-06T17:35:03;11.27;;;5.37;;
51266;SDS011;37338;47.426;19.204;2023-04-06T17:37:30;10.00;;;4.93;;
51266;SDS011;37338;47.426;19.204;2023-04-06T17:39:56;9.80;;;4.30;;
51266;SDS011;37338;47.426;19.204;2023-04-06T17:42:22;13.57;;;5.23;;
51266;SDS011;37338;47.426;19.204;2023-04-06T17:44:47;8.10;;;4.93;;
51266;SDS011;37338;47.426;19.204;2023-04-06T17:47:16;9.63;;;5.30;;
51266;SDS011;37338;47.426;19.204;2023-04-06T17:49:41;8.43;;;5.30;;
51266;SDS011;37338;47.426;19.204;2023-04-06T17:52:07;7.83;;;4.43;;
51266;SDS011;37338;47.426;19.204;2023-04-06T17:54:33;12.63;;;5.03;;
51266;SDS011;37338;47.426;19.204;2023-04-06T17:56:59;12.20;;;5.93;;
51266;SDS011;37338;47.426;19.204;2023-04-06T17:59:25;8.53;;;5.33;;
51266;SDS011;37338;47.426;19.204;2023-04-06T18:01:51;9.63;;;5.83;;
51266;SDS011;37338;47.426;19.204;2023-04-06T18:04:16;12.63;;;6.93;;
51266;SDS011;37338;47.426;19.204;2023-04-06T18:06:42;7.47;;;5.77;;
51266;SDS011;37338;47.426;19.204;2023-04-06T18:09:07;8.33;;;5.40;;
51266;SDS011;37338;47.426;19.204;2023-04-06T18:11:33;9.63;;;5.53;;
51266;SDS011;37338;47.426;19.204;2023-04-06T18:13:58;8.83;;;5.43;;
51266;SDS011;37338;47.426;19.204;2023-04-06T18:16:24;10.90;;;5.73;;
51266;SDS011;37338;47.426;19.204;2023-04-06T18:18:49;7.70;;;5.33;;
51266;SDS011;37338;47.426;19.204;2023-04-06T18:21:15;10.20;;;6.37;;
51266;SDS011;37338;47.426;19.204;2023-04-06T18:23:40;9.70;;;6.37;;
51266;SDS011;37338;47.426;19.204;2023-04-06T18:26:09;10.87;;;6.43;;
51266;SDS011;37338;47.426;19.204;2023-04-06T18:28:40;12.63;;;6.70;;
51266;SDS011;37338;47.426;19.204;2023-04-06T18:31:05;10.00;;;6.20;;
51266;SDS011;37338;47.426;19.204;2023-04-06T18:33:31;10.13;;;6.30;;
51266;SDS011;37338;47.426;19.204;2023-04-06T18:35:56;9.80;;;6.50;;
51266;SDS011;37338;47.426;19.204;2023-04-06T18:38:22;10.77;;;7.13;;
51266;SDS011;37338;47.426;19.204;2023-04-06T18:40:48;12.40;;;7.03;;
51266;SDS011;37338;47.426;19.204;2023-04-06T18:43:13;10.00;;;6.37;;
51266;SDS011;37338;47.426;19.204;2023-04-06T18:45:39;8.67;;;5.87;;
51266;SDS011;37338;47.426;19.204;2023-04-06T18:48:07;10.80;;;7.10;;
51266;SDS011;37338;47.426;19.204;2023-04-06T18:50:33;10.57;;;6.53;;
51266;SDS011;37338;47.426;19.204;2023-04-06T18:52:59;12.13;;;7.37;;
51266;SDS011;37338;47.426;19.204;2023-04-06T18:55:25;15.17;;;7.73;;
51266;SDS011;37338;47.426;19.204;2023-04-06T18:57:50;12.57;;;8.10;;
51266;SDS011;37338;47.426;19.204;2023-04-06T19:00:16;10.70;;;7.63;;
51266;SDS011;37338;47.426;19.204;2023-04-06T19:02:42;14.87;;;9.13;;
51266;SDS011;37338;47.426;19.204;2023-04-06T19:05:11;16.87;;;8.87;;
51266;SDS011;37338;47.426;19.204;2023-04-06T19:07:42;13.97;;;9.47;;
51266;SDS011;37338;47.426;19.204;2023-04-06T19:20:17;18.27;;;10.63;;
51266;SDS011;37338;47.426;19.204;2023-04-06T19:22:42;16.47;;;10.33;;
51266;SDS011;37338;47.426;19.204;2023-04-06T19:25:08;17.63;;;10.07;;
51266;SDS011;37338;47.426;19.204;2023-04-06T19:47:30;16.63;;;9.20;;
51266;SDS011;37338;47.426;19.204;2023-04-06T19:49:55;17.20;;;10.30;;